Maldives Meteorological Service

SYNOP

Station Code SYNOP
43555
AAXX 12094 43555 41440 73204 10295 20245 30113 40115 70544 82208 333 58012 82818 87277=
43533
AAXX 12094 43533 41457 73606 10303 20251 30115 40117 70522 82232 333 58010 82818 85077=
43577
AAXX 12094 43577 41457 72008 10302 20243 30120 40122 70522 82238 333 58019 82818 87276=
43588
AAXX 12094 43588 41459 72509 10277 20241 30121 40122 70282 83937 333 58021 82817 81919 87362=
43599
AAXX 12094 43599 42460 82911 10282 20243 30121 40123 82257 333 58021 82817 86361 88274=
Last Updated : 2018-12-12 14:00:05